Time;durP1;ratioP1;P1;durP2;ratioP2;P2;SDS_P1;SDS_P2;PMS_P1;PMS_P2;Temp;Humidity;BMP_temperature;BMP_pressure;BME280_temperature;BME280_humidity;BME280_pressure;Samples;Min_cycle;Max_cycle;Signal;HPM_P1;HPM_P2
2022/07/23 00:00:47;;;;;;;20.10;11.40;;;22.50;35.20;;;;;;5059193;28;46422;-64
2022/07/23 00:03:13;;;;;;;21.73;12.03;;;22.60;35.20;;;;;;5060279;28;46322;-64
2022/07/23 00:05:39;;;;;;;17.67;12.20;;;22.50;35.00;;;;;;5059826;28;47173;-64
2022/07/23 00:08:06;;;;;;;16.67;11.77;;;22.60;35.10;;;;;;5059539;28;46510;-64
2022/07/23 00:10:32;;;;;;;19.50;11.13;;;22.60;34.80;;;;;;5058772;28;46385;-64
2022/07/23 00:12:57;;;;;;;18.30;12.27;;;22.60;34.90;;;;;;5058757;28;46585;-64
2022/07/23 00:15:23;;;;;;;15.47;11.27;;;22.60;35.00;;;;;;5058916;28;46360;-64
2022/07/23 00:17:48;;;;;;;16.80;12.20;;;22.60;35.10;;;;;;5060277;28;46392;-64
2022/07/23 00:20:14;;;;;;;14.70;11.43;;;22.50;35.20;;;;;;5060472;28;46438;-64
2022/07/23 00:22:47;;;;;;;16.97;11.57;;;22.50;35.30;;;;;;5060299;28;46296;-64
2022/07/23 00:25:13;;;;;;;16.33;11.90;;;22.40;35.50;;;;;;5058283;28;46433;-63
2022/07/23 00:27:39;;;;;;;18.63;11.10;;;22.30;36.10;;;;;;5059811;28;45862;-63
2022/07/23 00:30:05;;;;;;;16.03;9.47;;;22.30;36.10;;;;;;5058611;28;46403;-63
2022/07/23 00:32:30;;;;;;;14.30;9.20;;;22.30;35.70;;;;;;5060137;28;46603;-63
2022/07/23 00:34:56;;;;;;;19.63;8.90;;;22.50;34.80;;;;;;5059294;28;46422;-63
2022/07/23 00:37:22;;;;;;;12.03;8.50;;;22.60;33.80;;;;;;5059484;28;46434;-64
2022/07/23 00:39:47;;;;;;;9.27;7.23;;;22.60;33.00;;;;;;5060361;28;46395;-63
2022/07/23 00:42:13;;;;;;;13.70;8.20;;;22.70;32.40;;;;;;5060519;28;46439;-65
2022/07/23 00:44:38;;;;;;;12.40;7.03;;;22.70;31.80;;;;;;5060071;28;47321;-65
2022/07/23 00:47:05;;;;;;;33.83;8.40;;;22.70;31.40;;;;;;5059043;28;46483;-65
2022/07/23 00:49:31;;;;;;;18.20;8.40;;;22.70;30.80;;;;;;5059942;28;46460;-64
2022/07/23 00:51:57;;;;;;;24.20;10.53;;;22.60;31.00;;;;;;5057785;28;46641;-65
2022/07/23 00:54:26;;;;;;;30.03;10.63;;;21.40;37.60;;;;;;5063147;28;46335;-65
2022/07/23 00:56:52;;;;;;;23.17;9.00;;;19.50;49.70;;;;;;5061605;28;46789;-65
2022/07/23 00:59:18;;;;;;;20.57;8.83;;;18.30;58.50;;;;;;5061024;28;46379;-64
2022/07/23 01:01:45;;;;;;;16.40;9.87;;;17.50;64.70;;;;;;5063161;28;46449;-65
2022/07/23 01:04:11;;;;;;;23.67;11.20;;;17.10;68.70;;;;;;5062393;28;46414;-65
2022/07/23 01:06:38;;;;;;;24.77;12.57;;;17.20;68.00;;;;;;5061689;28;46506;-65
2022/07/23 01:09:05;;;;;;;23.00;13.97;;;17.40;66.80;;;;;;5063358;28;46393;-64
2022/07/23 01:11:36;;;;;;;26.27;14.37;;;17.60;64.90;;;;;;5065149;28;47598;-64
2022/07/23 01:14:14;;;;;;;30.93;14.87;;;17.70;64.60;;;;;;5062319;28;47167;-65
2022/07/23 01:16:41;;;;;;;24.83;15.00;;;17.80;65.00;;;;;;5061061;28;46423;-65
2022/07/23 01:19:07;;;;;;;20.60;13.87;;;17.90;65.30;;;;;;5061966;28;46408;-65
2022/07/23 01:21:36;;;;;;;21.90;15.17;;;17.90;64.90;;;;;;5059142;28;46439;-65
2022/07/23 01:24:03;;;;;;;22.93;15.50;;;18.00;65.00;;;;;;5060798;28;46737;-64
2022/07/23 01:26:29;;;;;;;25.40;16.33;;;18.10;64.90;;;;;;5059959;28;46696;-64
2022/07/23 01:28:55;;;;;;;27.30;13.53;;;18.10;65.20;;;;;;5060383;28;46483;-64
2022/07/23 01:31:20;;;;;;;21.00;13.57;;;18.00;66.00;;;;;;5062348;28;46764;-65
2022/07/23 01:33:46;;;;;;;23.57;12.90;;;18.00;66.40;;;;;;5061093;28;47144;-65
2022/07/23 01:36:12;;;;;;;26.80;15.43;;;18.00;68.10;;;;;;5061530;28;46676;-65
2022/07/23 01:38:37;;;;;;;26.90;14.27;;;17.90;68.30;;;;;;5061176;28;46393;-64
2022/07/23 01:41:03;;;;;;;21.60;13.03;;;18.00;68.40;;;;;;5062942;28;46464;-65
2022/07/23 01:43:29;;;;;;;20.50;13.70;;;17.90;68.40;;;;;;5062382;28;46330;-64
2022/07/23 01:45:55;;;;;;;21.13;12.00;;;17.90;69.90;;;;;;5062446;28;46496;-64
2022/07/23 01:48:20;;;;;;;20.20;11.77;;;17.90;71.70;;;;;;5061632;28;46366;-64
2022/07/23 01:50:47;;;;;;;22.57;12.50;;;17.90;72.50;;;;;;5061738;28;45805;-64
2022/07/23 01:53:13;;;;;;;23.67;12.80;;;17.90;72.40;;;;;;5060479;28;46634;-65
2022/07/23 01:55:39;;;;;;;20.17;12.63;;;18.00;71.90;;;;;;5060980;28;46336;-65
2022/07/23 01:58:05;;;;;;;21.77;11.70;;;18.00;71.90;;;;;;5062340;28;46251;-64
2022/07/23 02:00:31;;;;;;;24.37;12.13;;;18.10;71.90;;;;;;5060298;28;45859;-64
2022/07/23 02:03:00;;;;;;;18.37;11.77;;;18.10;71.90;;;;;;5060038;28;47216;-64
2022/07/23 02:05:28;;;;;;;16.30;11.43;;;18.10;72.00;;;;;;5061056;28;46495;-64
2022/07/23 02:07:54;;;;;;;18.77;12.30;;;18.00;71.80;;;;;;5059237;28;46511;-64
2022/07/23 02:10:20;;;;;;;20.50;12.13;;;18.00;71.80;;;;;;5062194;28;46520;-64
2022/07/23 02:12:46;;;;;;;25.23;14.37;;;18.20;71.00;;;;;;5060601;28;46392;-64
2022/07/23 02:15:11;;;;;;;23.57;13.73;;;18.40;69.80;;;;;;5061383;28;46308;-64
2022/07/23 02:17:37;;;;;;;25.67;14.17;;;18.50;68.90;;;;;;5059848;28;46499;-64
2022/07/23 02:20:04;;;;;;;22.97;14.47;;;18.60;68.70;;;;;;5061053;28;46958;-64
2022/07/23 02:22:30;;;;;;;34.70;13.60;;;18.60;68.70;;;;;;5060564;28;47011;-64
2022/07/23 02:24:56;;;;;;;27.50;15.30;;;18.60;69.30;;;;;;5060634;28;46458;-64
2022/07/23 02:27:21;;;;;;;36.93;15.23;;;18.60;69.40;;;;;;5058665;28;46416;-64
2022/07/23 02:29:47;;;;;;;23.90;13.30;;;18.60;69.60;;;;;;5061953;28;46385;-64
2022/07/23 02:32:13;;;;;;;16.47;12.13;;;18.50;70.20;;;;;;5059355;28;46695;-64
2022/07/23 02:34:38;;;;;;;16.40;11.80;;;18.60;70.10;;;;;;5060968;28;46370;-64
2022/07/23 02:37:04;;;;;;;23.40;12.53;;;18.60;70.00;;;;;;5058358;28;46457;-64
2022/07/23 02:39:30;;;;;;;17.30;12.80;;;18.70;69.60;;;;;;5061695;28;46464;-64
2022/07/23 02:41:55;;;;;;;19.67;11.03;;;18.70;69.60;;;;;;5060295;28;46531;-64
2022/07/23 02:44:21;;;;;;;15.83;11.10;;;18.80;69.40;;;;;;5062227;28;46394;-64
2022/07/23 02:46:46;;;;;;;19.10;11.30;;;18.90;69.00;;;;;;5059365;28;46393;-64
2022/07/23 02:49:12;;;;;;;16.40;10.00;;;18.90;68.80;;;;;;5062148;28;46480;-64
2022/07/23 02:51:37;;;;;;;14.50;10.00;;;18.90;69.40;;;;;;5059031;28;47231;-64
2022/07/23 02:54:03;;;;;;;17.80;10.60;;;18.80;70.50;;;;;;5059907;28;46718;-64
2022/07/23 02:56:29;;;;;;;13.50;8.60;;;18.70;71.10;;;;;;5059619;28;46460;-64
2022/07/23 02:58:54;;;;;;;20.13;9.10;;;18.70;72.50;;;;;;5060292;28;46475;-64
2022/07/23 03:01:20;;;;;;;16.07;7.70;;;18.60;72.40;;;;;;5058821;28;47028;-64
2022/07/23 03:03:45;;;;;;;13.70;7.57;;;18.60;72.40;;;;;;5061181;28;46385;-64
2022/07/23 03:06:11;;;;;;;15.87;8.57;;;18.50;72.30;;;;;;5060239;28;46692;-63
2022/07/23 03:08:37;;;;;;;10.90;8.20;;;18.60;72.40;;;;;;5061328;28;46356;-64
2022/07/23 03:11:03;;;;;;;11.57;8.50;;;18.50;72.30;;;;;;5059661;28;46399;-65
2022/07/23 03:13:29;;;;;;;12.47;8.87;;;18.50;72.30;;;;;;5060872;28;46378;-65
2022/07/23 03:15:54;;;;;;;11.83;7.13;;;18.40;72.40;;;;;;5059387;28;46440;-65
2022/07/23 03:18:20;;;;;;;13.70;7.47;;;18.40;72.80;;;;;;5060285;28;46263;-64
2022/07/23 03:20:46;;;;;;;12.90;7.27;;;18.40;73.30;;;;;;5060604;28;46932;-64
2022/07/23 03:23:12;;;;;;;13.20;7.37;;;18.30;73.70;;;;;;5061480;28;46240;-65
2022/07/23 03:25:37;;;;;;;14.03;7.40;;;18.30;74.70;;;;;;5061052;28;46417;-65
2022/07/23 03:28:03;;;;;;;10.10;6.80;;;18.30;74.20;;;;;;5060740;28;46470;-65
2022/07/23 03:30:29;;;;;;;9.00;7.03;;;18.30;74.00;;;;;;5059476;28;47130;-64
2022/07/23 03:32:54;;;;;;;11.60;7.43;;;18.30;73.80;;;;;;5060151;28;45928;-65
2022/07/23 03:35:20;;;;;;;9.87;7.13;;;18.20;73.70;;;;;;5061398;28;46697;-64
2022/07/23 03:37:45;;;;;;;7.70;5.67;;;18.10;73.70;;;;;;5060594;28;46481;-64
2022/07/23 03:40:11;;;;;;;11.57;7.00;;;18.10;74.20;;;;;;5058518;28;46916;-64
2022/07/23 03:42:37;;;;;;;13.73;6.90;;;18.10;73.80;;;;;;5059026;28;46468;-65
2022/07/23 03:45:04;;;;;;;11.23;6.27;;;18.10;73.70;;;;;;5059806;28;45851;-65
2022/07/23 03:47:30;;;;;;;17.27;7.93;;;18.10;73.50;;;;;;5059567;28;46407;-64
2022/07/23 03:49:55;;;;;;;13.37;7.20;;;18.10;73.20;;;;;;5060278;28;46353;-64
2022/07/23 03:52:21;;;;;;;11.30;6.50;;;18.20;72.70;;;;;;5059788;28;46378;-64
2022/07/23 03:54:46;;;;;;;9.67;6.70;;;18.20;72.10;;;;;;5060271;28;46552;-65
2022/07/23 03:57:12;;;;;;;12.43;6.80;;;18.30;72.10;;;;;;5059974;28;46539;-65
2022/07/23 03:59:37;;;;;;;9.67;7.50;;;18.30;72.10;;;;;;5057167;28;46981;-65
2022/07/23 04:02:03;;;;;;;15.80;7.53;;;18.30;72.10;;;;;;5059950;28;46403;-65
2022/07/23 04:04:28;;;;;;;14.90;7.03;;;18.30;72.20;;;;;;5060415;28;46463;-65
2022/07/23 04:06:54;;;;;;;9.80;6.87;;;18.40;72.00;;;;;;5059628;28;46682;-65
2022/07/23 04:09:20;;;;;;;15.87;7.30;;;18.40;71.50;;;;;;5059175;28;46408;-65
2022/07/23 04:11:45;;;;;;;14.10;7.70;;;18.40;71.50;;;;;;5058082;28;46524;-64
2022/07/23 04:14:11;;;;;;;12.40;7.00;;;18.40;71.40;;;;;;5060327;28;46442;-65
2022/07/23 04:16:36;;;;;;;15.53;7.47;;;18.50;71.30;;;;;;5059039;28;46663;-65
2022/07/23 04:19:04;;;;;;;10.23;6.93;;;18.50;71.30;;;;;;5060253;28;47350;-64
2022/07/23 04:21:29;;;;;;;10.20;7.40;;;18.50;71.10;;;;;;5060085;28;46380;-65
2022/07/23 04:23:55;;;;;;;9.73;7.30;;;18.40;72.20;;;;;;5058070;28;46507;-65
2022/07/23 04:26:21;;;;;;;13.40;7.70;;;18.40;71.90;;;;;;5060754;28;46321;-65
2022/07/23 04:28:47;;;;;;;18.93;8.13;;;18.30;72.10;;;;;;5062908;28;46691;-65
2022/07/23 04:31:12;;;;;;;9.70;7.10;;;18.30;72.10;;;;;;5068246;28;46442;-65
2022/07/23 04:33:38;;;;;;;11.20;8.53;;;18.30;72.10;;;;;;5065647;28;46404;-65
2022/07/23 04:36:04;;;;;;;12.30;7.60;;;18.50;70.70;;;;;;5062710;28;46591;-63
2022/07/23 04:38:29;;;;;;;18.73;8.00;;;18.60;70.10;;;;;;5061125;28;46524;-65
2022/07/23 04:40:55;;;;;;;15.77;8.23;;;18.60;70.20;;;;;;5063770;28;46382;-64
2022/07/23 04:43:20;;;;;;;9.17;7.43;;;18.70;69.70;;;;;;5063065;28;46365;-65
2022/07/23 04:45:46;;;;;;;15.00;7.90;;;18.80;69.10;;;;;;5064296;28;46515;-65
2022/07/23 04:48:12;;;;;;;12.30;8.50;;;18.90;69.00;;;;;;5063255;28;46621;-64
2022/07/23 04:50:37;;;;;;;11.53;8.40;;;18.80;69.70;;;;;;5062390;28;46470;-65
2022/07/23 04:53:03;;;;;;;13.20;7.57;;;18.80;69.60;;;;;;5062714;28;46400;-64
2022/07/23 04:55:28;;;;;;;14.00;7.80;;;18.90;69.40;;;;;;5063632;28;45893;-64
2022/07/23 04:57:54;;;;;;;10.07;7.80;;;18.70;69.90;;;;;;5063805;28;46368;-65
2022/07/23 05:00:20;;;;;;;12.37;6.90;;;18.80;69.40;;;;;;5062457;28;46369;-64
2022/07/23 05:02:45;;;;;;;10.53;7.80;;;18.90;68.90;;;;;;5062068;28;46752;-65
2022/07/23 05:05:11;;;;;;;19.70;8.80;;;19.00;68.50;;;;;;5063537;28;46526;-64
2022/07/23 05:07:36;;;;;;;10.60;8.27;;;19.10;68.20;;;;;;5062103;28;47062;-64
2022/07/23 05:10:02;;;;;;;16.80;7.47;;;19.10;68.30;;;;;;5063896;28;45882;-65
2022/07/23 05:12:28;;;;;;;14.43;7.63;;;19.10;68.30;;;;;;5062096;28;45956;-65
2022/07/23 05:14:54;;;;;;;14.77;7.50;;;19.20;68.40;;;;;;5063374;28;46441;-65
2022/07/23 05:17:19;;;;;;;10.73;7.17;;;19.30;68.00;;;;;;5062084;28;46977;-65
2022/07/23 05:19:45;;;;;;;13.60;7.97;;;19.40;67.30;;;;;;5063056;28;46703;-64
2022/07/23 05:22:11;;;;;;;14.03;6.77;;;19.50;66.70;;;;;;5062802;28;45802;-65
2022/07/23 05:24:36;;;;;;;12.03;6.17;;;19.60;65.90;;;;;;5063212;28;46440;-64
2022/07/23 05:27:02;;;;;;;13.40;7.60;;;19.80;65.50;;;;;;5061970;28;46504;-65
2022/07/23 05:29:27;;;;;;;10.50;6.30;;;19.90;64.80;;;;;;5062257;28;46473;-65
2022/07/23 05:31:53;;;;;;;16.53;6.57;;;19.80;64.90;;;;;;5058814;28;46489;-65
2022/07/23 05:34:18;;;;;;;19.23;7.03;;;19.80;64.70;;;;;;5062980;28;46314;-65
2022/07/23 05:36:44;;;;;;;12.23;7.07;;;19.70;64.80;;;;;;5060193;28;48169;-64
2022/07/23 05:39:10;;;;;;;14.47;6.20;;;19.60;64.80;;;;;;5060668;28;46353;-65
2022/07/23 05:41:35;;;;;;;15.97;7.00;;;19.60;64.70;;;;;;5062988;28;45801;-65
2022/07/23 05:44:01;;;;;;;10.60;6.60;;;19.60;64.50;;;;;;5063236;28;46040;-64
2022/07/23 05:46:26;;;;;;;10.87;6.97;;;19.70;63.70;;;;;;5061879;28;47162;-65
2022/07/23 05:48:52;;;;;;;12.83;6.70;;;19.90;63.10;;;;;;5061431;28;46221;-64
2022/07/23 05:51:21;;;;;;;11.40;7.27;;;20.00;62.70;;;;;;5062784;28;46435;-65
2022/07/23 05:53:47;;;;;;;14.33;6.77;;;20.10;62.40;;;;;;5061079;28;46386;-65
2022/07/23 05:56:13;;;;;;;12.77;7.77;;;20.20;61.70;;;;;;5064633;28;46460;-65
2022/07/23 05:58:39;;;;;;;10.47;6.83;;;20.30;61.10;;;;;;5060479;28;46486;-65
2022/07/23 06:01:05;;;;;;;16.50;7.57;;;20.40;61.10;;;;;;5062614;28;46410;-65
2022/07/23 06:03:30;;;;;;;10.03;7.03;;;20.40;61.60;;;;;;5065832;28;45916;-65
2022/07/23 06:05:56;;;;;;;12.43;7.40;;;20.20;62.40;;;;;;5061722;28;48525;-65
2022/07/23 06:08:21;;;;;;;17.67;8.20;;;20.10;62.90;;;;;;5060662;28;46333;-65
2022/07/23 06:10:47;;;;;;;13.83;8.87;;;20.00;63.50;;;;;;5062128;28;46477;-65
2022/07/23 06:13:12;;;;;;;11.40;8.10;;;19.90;64.00;;;;;;5060408;28;46411;-65
2022/07/23 06:15:38;;;;;;;11.10;8.20;;;19.80;64.20;;;;;;5061435;28;46349;-65
2022/07/23 06:18:04;;;;;;;10.37;8.00;;;19.70;64.10;;;;;;5060313;28;46469;-65
2022/07/23 06:20:29;;;;;;;15.00;7.67;;;19.70;64.00;;;;;;5061464;28;46412;-64
2022/07/23 06:22:55;;;;;;;17.50;8.23;;;19.80;63.50;;;;;;5062933;28;46559;-65
2022/07/23 06:25:20;;;;;;;12.07;7.70;;;19.90;63.00;;;;;;5063548;28;46467;-65
2022/07/23 06:27:47;;;;;;;10.47;7.10;;;20.00;62.20;;;;;;5060133;28;46406;-65
2022/07/23 06:30:15;;;;;;;12.47;7.33;;;20.10;61.60;;;;;;5061908;28;46414;-63
2022/07/23 06:32:41;;;;;;;14.03;7.17;;;20.10;61.20;;;;;;5061856;28;46268;-63
2022/07/23 06:35:07;;;;;;;15.13;7.50;;;20.10;61.10;;;;;;5060942;28;46409;-65
2022/07/23 06:37:33;;;;;;;16.83;9.17;;;20.20;61.00;;;;;;5061196;28;46459;-65
2022/07/23 06:39:58;;;;;;;13.10;8.20;;;20.20;61.00;;;;;;5060996;28;46438;-64
2022/07/23 06:42:24;;;;;;;12.27;7.90;;;20.20;61.00;;;;;;5061135;28;46907;-64
2022/07/23 06:44:49;;;;;;;11.90;8.53;;;20.30;61.10;;;;;;5060169;28;47120;-64
2022/07/23 06:47:15;;;;;;;10.43;8.00;;;20.30;61.10;;;;;;5061419;28;46472;-64
2022/07/23 06:49:41;;;;;;;11.87;8.50;;;20.40;60.60;;;;;;5060928;28;46440;-64
2022/07/23 06:52:07;;;;;;;12.43;8.60;;;20.40;60.50;;;;;;5060336;28;46432;-64
2022/07/23 06:54:33;;;;;;;13.07;7.63;;;20.50;60.30;;;;;;5066122;28;47485;-64
2022/07/23 06:56:58;;;;;;;13.03;8.00;;;20.40;60.30;;;;;;5058909;28;46285;-65
2022/07/23 06:59:24;;;;;;;13.07;8.77;;;20.50;60.00;;;;;;5061811;28;46290;-64
2022/07/23 07:01:49;;;;;;;12.73;8.47;;;20.50;59.90;;;;;;5060421;28;46441;-64
2022/07/23 07:04:15;;;;;;;11.03;7.93;;;20.60;59.80;;;;;;5061499;28;46384;-64
2022/07/23 07:06:41;;;;;;;12.97;8.63;;;20.60;59.80;;;;;;5059616;28;46312;-64
2022/07/23 07:09:06;;;;;;;14.60;8.97;;;20.60;59.70;;;;;;5060488;28;46424;-64
2022/07/23 07:11:32;;;;;;;14.40;9.20;;;20.60;59.70;;;;;;5060078;28;46755;-64
2022/07/23 07:13:57;;;;;;;13.10;8.87;;;20.60;59.80;;;;;;5061541;28;45997;-64
2022/07/23 07:16:23;;;;;;;13.13;9.33;;;20.50;60.00;;;;;;5059293;28;46391;-64
2022/07/23 07:18:49;;;;;;;13.13;8.90;;;20.50;60.40;;;;;;5060262;28;46469;-65
2022/07/23 07:21:14;;;;;;;11.93;8.80;;;20.40;60.50;;;;;;5060026;28;46443;-67
2022/07/23 07:23:40;;;;;;;15.20;10.37;;;20.40;60.80;;;;;;5060396;28;46476;-66
2022/07/23 07:26:06;;;;;;;17.67;10.43;;;20.30;61.10;;;;;;5060089;28;45935;-67
2022/07/23 07:28:31;;;;;;;12.53;10.20;;;20.30;61.10;;;;;;5060780;28;46456;-67
2022/07/23 07:30:57;;;;;;;15.37;9.10;;;20.20;61.00;;;;;;5060397;28;46432;-67
2022/07/23 07:33:22;;;;;;;12.00;9.10;;;20.10;61.20;;;;;;5059748;28;47186;-67
2022/07/23 07:35:48;;;;;;;12.47;9.93;;;20.10;61.80;;;;;;5060700;28;46357;-67
2022/07/23 07:38:13;;;;;;;14.63;10.17;;;20.10;61.70;;;;;;5059547;28;46381;-67
2022/07/23 07:40:40;;;;;;;12.20;7.40;;;20.20;61.10;;;;;;5060349;28;46375;-67
2022/07/23 07:43:06;;;;;;;14.27;8.47;;;20.30;61.10;;;;;;5059496;28;46241;-67
2022/07/23 07:45:31;;;;;;;14.07;7.60;;;20.40;61.10;;;;;;5061829;28;46310;-67
2022/07/23 07:47:57;;;;;;;12.63;8.50;;;20.60;61.30;;;;;;5059765;28;46437;-67
2022/07/23 07:50:23;;;;;;;11.43;7.40;;;20.60;61.30;;;;;;5061180;28;46455;-67
2022/07/23 07:52:49;;;;;;;9.90;7.80;;;20.60;61.40;;;;;;5060623;28;48582;-67
2022/07/23 07:55:15;;;;;;;10.90;7.23;;;20.90;60.90;;;;;;5059438;28;46528;-67
2022/07/23 07:57:41;;;;;;;11.13;8.37;;;21.20;59.80;;;;;;5060366;28;46477;-67
2022/07/23 08:00:09;;;;;;;10.77;7.80;;;21.50;59.10;;;;;;5059286;28;46018;-67
2022/07/23 08:02:43;;;;;;;17.23;8.10;;;21.60;58.40;;;;;;5058596;28;46266;-68
2022/07/23 08:05:09;;;;;;;11.10;7.67;;;21.70;58.60;;;;;;5060067;28;46567;-67
2022/07/23 08:07:35;;;;;;;15.03;8.27;;;21.90;58.20;;;;;;5059883;28;46402;-67
2022/07/23 08:10:01;;;;;;;11.30;7.50;;;22.10;57.70;;;;;;5060456;28;46263;-67
2022/07/23 08:12:26;;;;;;;18.87;7.90;;;22.40;57.10;;;;;;5059024;28;46545;-67
2022/07/23 08:14:52;;;;;;;10.90;6.90;;;22.70;56.70;;;;;;5059600;28;46430;-67
2022/07/23 08:17:18;;;;;;;11.60;7.70;;;23.10;56.40;;;;;;5059709;28;45901;-66
2022/07/23 08:19:43;;;;;;;12.57;7.33;;;23.50;56.10;;;;;;5059742;28;46624;-67
2022/07/23 08:22:09;;;;;;;13.33;7.23;;;23.60;56.10;;;;;;5057041;28;46266;-67
2022/07/23 08:24:34;;;;;;;11.63;8.47;;;23.60;55.90;;;;;;5059120;28;46478;-67
2022/07/23 08:27:00;;;;;;;12.20;7.93;;;23.80;56.00;;;;;;5058436;28;46457;-67
2022/07/23 08:29:26;;;;;;;17.33;8.23;;;24.10;55.40;;;;;;5060874;28;46580;-67
2022/07/23 08:31:51;;;;;;;12.30;8.57;;;24.20;54.90;;;;;;5059538;28;47231;-67
2022/07/23 08:34:17;;;;;;;11.47;7.87;;;24.50;54.70;;;;;;5062100;28;46603;-68
2022/07/23 08:36:42;;;;;;;10.60;8.30;;;24.70;53.60;;;;;;5065255;28;46428;-68
2022/07/23 08:39:08;;;;;;;11.60;8.40;;;24.80;53.40;;;;;;5062299;28;46481;-68
2022/07/23 08:41:34;;;;;;;16.73;8.40;;;24.80;53.20;;;;;;5057923;28;47140;-68
2022/07/23 08:44:00;;;;;;;13.13;8.27;;;25.00;52.40;;;;;;5059211;28;45844;-68
2022/07/23 08:46:27;;;;;;;10.87;8.67;;;25.20;52.40;;;;;;5058426;28;46311;-68
2022/07/23 08:48:54;;;;;;;11.50;8.63;;;25.50;52.30;;;;;;5059358;28;46493;-68
2022/07/23 08:51:21;;;;;;;10.20;8.50;;;25.70;51.30;;;;;;5057125;28;46424;-68
2022/07/23 08:53:47;;;;;;;11.40;8.80;;;25.80;50.40;;;;;;5058695;28;45891;-68
2022/07/23 08:56:13;;;;;;;11.20;8.33;;;25.60;50.10;;;;;;5057413;28;46423;-68
2022/07/23 08:58:39;;;;;;;13.43;8.60;;;25.60;50.30;;;;;;5058900;28;46341;-68
2022/07/23 09:01:04;;;;;;;10.50;8.33;;;25.50;50.20;;;;;;5054709;28;46167;-68
2022/07/23 09:03:32;;;;;;;11.37;8.87;;;25.40;50.10;;;;;;5059756;28;46334;-68
2022/07/23 09:06:00;;;;;;;13.37;8.73;;;25.40;50.10;;;;;;5059045;28;46379;-68
2022/07/23 09:08:42;;;;;;;13.83;8.57;;;25.60;50.00;;;;;;5057519;28;46378;-68
2022/07/23 09:11:16;;;;;;;12.83;8.53;;;25.80;48.70;;;;;;5056833;28;46456;-68
2022/07/23 09:13:48;;;;;;;9.00;7.40;;;25.80;48.20;;;;;;5057639;28;46358;-68
2022/07/23 09:16:29;;;;;;;9.50;6.27;;;26.00;47.70;;;;;;5059908;28;46389;-68
2022/07/23 09:19:01;;;;;;;10.10;6.60;;;26.20;46.10;;;;;;5060263;28;46515;-67
2022/07/23 09:21:37;;;;;;;11.20;6.47;;;26.50;44.80;;;;;;5061228;28;47262;-67
2022/07/23 09:24:11;;;;;;;7.97;5.70;;;26.60;43.60;;;;;;5058718;28;46409;-68
2022/07/23 09:26:40;;;;;;;9.37;6.07;;;26.60;42.10;;;;;;5059585;28;46371;-68
2022/07/23 09:29:19;;;;;;;8.60;5.57;;;26.40;40.70;;;;;;5061725;28;46399;-68
2022/07/23 09:31:53;;;;;;;9.90;6.20;;;26.10;41.10;;;;;;5060861;28;46416;-64
2022/07/23 09:34:24;;;;;;;9.10;6.00;;;25.90;41.50;;;;;;5061013;28;46356;-68
2022/07/23 09:36:54;;;;;;;10.57;6.73;;;26.00;40.50;;;;;;5054847;28;46496;-67
2022/07/23 09:39:38;;;;;;;7.60;5.77;;;26.30;40.00;;;;;;5062551;28;46391;-67
2022/07/23 09:42:14;;;;;;;9.70;6.13;;;26.70;39.90;;;;;;5054451;28;48316;-67
2022/07/23 09:44:51;;;;;;;9.07;6.47;;;26.70;37.90;;;;;;5063311;28;46460;-68
2022/07/23 09:47:17;;;;;;;10.70;6.40;;;26.70;37.20;;;;;;5070130;28;46702;-67
2022/07/23 09:50:00;;;;;;;10.53;6.10;;;26.60;35.00;;;;;;5065079;28;46403;-67
2022/07/23 09:52:31;;;;;;;15.37;6.47;;;26.30;34.50;;;;;;5062393;28;46031;-68
2022/07/23 09:54:59;;;;;;;12.27;6.10;;;26.20;34.70;;;;;;5059935;28;46564;-68
2022/07/23 09:57:26;;;;;;;8.30;5.70;;;26.20;34.70;;;;;;5061363;28;45917;-68
2022/07/23 09:59:52;;;;;;;10.00;5.97;;;26.50;34.20;;;;;;5062953;28;46592;-68
2022/07/23 10:02:20;;;;;;;10.93;6.00;;;26.70;34.30;;;;;;5060048;28;47267;-69
2022/07/23 10:04:47;;;;;;;9.77;6.17;;;26.80;34.30;;;;;;5062040;28;45967;-69
2022/07/23 10:07:16;;;;;;;9.50;5.40;;;27.10;33.90;;;;;;5059903;28;46455;-68
2022/07/23 10:09:43;;;;;;;9.60;5.60;;;27.40;33.10;;;;;;5062083;28;46609;-69
2022/07/23 10:14:40;;;;;;;9.80;5.70;;;27.90;31.40;;;;;;5061606;28;46324;-68
2022/07/23 10:17:07;;;;;;;8.73;5.33;;;28.10;31.10;;;;;;5061712;28;46337;-67
2022/07/23 10:19:32;;;;;;;7.93;5.27;;;28.20;30.60;;;;;;5062355;28;46549;-67
2022/07/23 10:22:48;;;;;;;8.57;6.40;;;28.10;30.30;;;;;;5061702;28;48449;-69
2022/07/23 10:25:32;;;;;;;8.30;5.87;;;28.20;30.00;;;;;;5056595;28;46612;-69
2022/07/23 10:28:16;;;;;;;8.40;5.20;;;27.90;29.00;;;;;;5060909;28;46495;-69
2022/07/23 10:31:06;;;;;;;9.03;6.63;;;27.90;29.40;;;;;;5061416;28;46251;-69
2022/07/23 10:33:50;;;;;;;8.10;5.53;;;28.10;29.30;;;;;;5058245;28;46166;-67
2022/07/23 10:36:27;;;;;;;9.60;6.27;;;27.90;29.10;;;;;;5061603;28;46460;-69
2022/07/23 10:39:05;;;;;;;10.40;5.90;;;27.70;29.20;;;;;;5060770;28;46358;-68
2022/07/23 10:41:31;;;;;;;8.07;5.57;;;27.40;29.70;;;;;;5061287;28;46441;-68
2022/07/23 10:44:14;;;;;;;9.20;6.70;;;27.30;29.70;;;;;;5056154;28;47133;-67
2022/07/23 10:47:02;;;;;;;9.70;5.67;;;27.20;29.40;;;;;;5060931;28;46578;-68
2022/07/23 10:49:31;;;;;;;9.73;6.30;;;27.10;29.60;;;;;;5062121;28;46550;-69
2022/07/23 10:52:21;;;;;;;8.57;6.10;;;27.10;29.80;;;;;;5061287;28;46009;-69
2022/07/23 10:54:57;;;;;;;10.00;7.13;;;27.10;29.60;;;;;;5058790;28;46309;-69
2022/07/23 10:57:27;;;;;;;8.20;6.60;;;27.00;29.90;;;;;;5060180;28;46863;-69
2022/07/23 11:00:09;;;;;;;10.33;6.93;;;26.80;29.80;;;;;;5058993;28;46389;-69
2022/07/23 11:02:36;;;;;;;10.03;6.40;;;26.60;30.20;;;;;;5063882;28;46343;-68
2022/07/23 11:05:10;;;;;;;13.10;7.00;;;26.50;30.80;;;;;;5060868;28;46403;-68
2022/07/23 11:07:56;;;;;;;12.37;7.30;;;26.40;30.90;;;;;;5062358;28;46412;-69
2022/07/23 11:10:46;;;;;;;10.27;6.80;;;26.30;31.50;;;;;;5062027;28;46401;-69
2022/07/23 11:13:24;;;;;;;11.23;6.40;;;26.10;31.90;;;;;;5061039;28;46112;-69
2022/07/23 11:16:02;;;;;;;9.53;6.17;;;26.00;32.60;;;;;;5061040;28;46390;-69
2022/07/23 11:18:55;;;;;;;9.60;6.60;;;25.90;33.20;;;;;;5059526;28;45794;-68
2022/07/23 11:21:20;;;;;;;11.67;7.33;;;25.90;33.80;;;;;;5056494;28;46470;-69
2022/07/23 11:24:06;;;;;;;11.23;6.53;;;26.20;33.40;;;;;;5060358;28;46433;-69
2022/07/23 11:26:39;;;;;;;11.50;7.37;;;26.40;33.20;;;;;;5059684;28;47045;-70
2022/07/23 11:29:27;;;;;;;11.00;6.20;;;26.60;32.70;;;;;;5059767;28;46651;-68
2022/07/23 11:31:55;;;;;;;7.10;6.10;;;27.00;31.60;;;;;;5051427;28;46750;-68
2022/07/23 11:34:38;;;;;;;8.80;5.80;;;27.20;31.00;;;;;;5059690;28;46388;-70
2022/07/23 11:37:06;;;;;;;8.17;5.83;;;27.40;30.20;;;;;;5058127;28;46299;-69
2022/07/23 11:39:33;;;;;;;9.10;6.60;;;27.40;31.20;;;;;;5058323;28;46371;-69
2022/07/23 11:42:00;;;;;;;11.17;6.20;;;27.20;30.00;;;;;;5060929;28;46191;-69
2022/07/23 11:44:27;;;;;;;11.30;7.33;;;26.90;30.50;;;;;;5061497;28;46612;-69
2022/07/23 11:47:00;;;;;;;9.40;6.87;;;26.60;31.10;;;;;;5060544;28;46627;-69
2022/07/23 11:49:26;;;;;;;10.47;7.10;;;26.70;31.70;;;;;;5060865;28;46456;-69
2022/07/23 11:52:11;;;;;;;9.77;7.33;;;27.00;31.30;;;;;;5058244;28;46599;-69
2022/07/23 11:54:50;;;;;;;10.50;7.57;;;27.40;30.50;;;;;;5060868;28;46449;-69
2022/07/23 11:57:16;;;;;;;10.23;7.27;;;27.80;29.90;;;;;;5059852;28;46356;-69
2022/07/23 11:59:43;;;;;;;10.07;7.03;;;27.90;29.50;;;;;;5058562;28;46595;-67
2022/07/23 12:02:09;;;;;;;9.17;7.57;;;28.20;29.10;;;;;;5056224;28;46499;-70
2022/07/23 12:04:42;;;;;;;12.70;8.27;;;28.30;28.70;;;;;;5058886;28;46412;-69
2022/07/23 12:07:26;;;;;;;11.13;7.00;;;28.20;28.60;;;;;;5057421;28;46447;-69
2022/07/23 12:09:52;;;;;;;10.43;7.73;;;28.20;29.00;;;;;;5060259;28;46393;-69
2022/07/23 12:12:17;;;;;;;11.20;7.17;;;28.10;28.80;;;;;;5057607;28;47288;-68
2022/07/23 12:14:51;;;;;;;10.20;7.47;;;28.10;28.90;;;;;;5060058;28;46658;-69
2022/07/23 12:17:17;;;;;;;9.53;6.83;;;28.20;28.60;;;;;;5058726;28;46271;-69
2022/07/23 12:19:43;;;;;;;8.80;6.27;;;28.50;27.80;;;;;;5054765;28;46389;-69
2022/07/23 12:22:09;;;;;;;11.93;7.40;;;28.40;27.80;;;;;;5066223;28;46454;-68
2022/07/23 12:24:53;;;;;;;10.43;7.27;;;28.20;27.70;;;;;;5070704;28;45905;-68
2022/07/23 12:27:21;;;;;;;11.60;7.40;;;28.00;27.80;;;;;;5058664;28;48268;-68
2022/07/23 12:29:47;;;;;;;10.70;7.50;;;27.90;28.10;;;;;;5059601;28;46513;-68
2022/07/23 12:32:28;;;;;;;9.70;7.37;;;27.80;28.60;;;;;;5056542;28;46418;-68
2022/07/23 12:35:08;;;;;;;10.53;7.53;;;27.60;28.90;;;;;;5060513;28;45870;-68
2022/07/23 12:37:38;;;;;;;13.87;8.37;;;27.50;28.90;;;;;;5059500;28;46297;-69
2022/07/23 12:40:30;;;;;;;9.53;6.07;;;27.40;28.80;;;;;;5058472;28;46480;-69
2022/07/23 12:42:59;;;;;;;9.40;6.97;;;27.40;28.70;;;;;;5059648;28;46452;-68